sensor_id;sensor_type;location;lat;lon;timestamp;pressure;altitude;pressure_sealevel;temperature;humidity
51243;BME280;37812;47.556;18.718;2022-07-04T12:01:48;99616.75;;;37.25;20.48
51243;BME280;37812;47.556;18.718;2022-07-04T12:04:20;99616.75;;;37.25;20.48
51243;BME280;37812;47.556;18.718;2022-07-04T12:06:48;99619.84;;;36.84;20.43
51243;BME280;37812;47.556;18.718;2022-07-04T12:09:15;99605.88;;;36.66;21.51
51243;BME280;37812;47.556;18.718;2022-07-04T12:12:04;99615.22;;;36.37;21.25
51243;BME280;37812;47.556;18.718;2022-07-04T12:14:30;99618.75;;;36.25;20.74
51243;BME280;37812;47.556;18.718;2022-07-04T12:17:15;99622.44;;;35.98;22.15
51243;BME280;37812;47.556;18.718;2022-07-04T12:19:56;99624.72;;;36.42;21.61
51243;BME280;37812;47.556;18.718;2022-07-04T12:22:26;99611.63;;;36.36;21.53
51243;BME280;37812;47.556;18.718;2022-07-04T12:24:53;99606.06;;;36.76;22.79
51243;BME280;37812;47.556;18.718;2022-07-04T12:32:00;99620.97;;;38.00;20.89
51243;BME280;37812;47.556;18.718;2022-07-04T12:34:26;99620.97;;;38.00;20.89
51243;BME280;37812;47.556;18.718;2022-07-04T12:36:56;99610.81;;;36.85;22.32
51243;BME280;37812;47.556;18.718;2022-07-04T12:39:50;99605.53;;;36.71;20.10
51243;BME280;37812;47.556;18.718;2022-07-04T12:42:17;99608.88;;;36.74;20.10
51243;BME280;37812;47.556;18.718;2022-07-04T12:44:45;99604.34;;;36.75;21.84
51243;BME280;37812;47.556;18.718;2022-07-04T12:47:15;99609.69;;;36.88;21.00
51243;BME280;37812;47.556;18.718;2022-07-04T12:49:43;99601.72;;;37.10;19.83
51243;BME280;37812;47.556;18.718;2022-07-04T12:52:15;99606.25;;;36.86;21.18
51243;BME280;37812;47.556;18.718;2022-07-04T12:54:43;99589.19;;;36.98;20.17
51243;BME280;37812;47.556;18.718;2022-07-04T12:57:14;99600.41;;;37.40;19.11
51243;BME280;37812;47.556;18.718;2022-07-04T12:59:41;99600.94;;;36.97;19.69
51243;BME280;37812;47.556;18.718;2022-07-04T13:02:08;99599.25;;;36.46;20.13
51243;BME280;37812;47.556;18.718;2022-07-04T13:04:35;99607.13;;;36.86;18.90
51243;BME280;37812;47.556;18.718;2022-07-04T13:07:16;99596.81;;;36.67;19.25
51243;BME280;37812;47.556;18.718;2022-07-04T13:09:43;99595.81;;;36.44;19.54
51243;BME280;37812;47.556;18.718;2022-07-04T13:12:10;99597.50;;;36.58;19.43
51243;BME280;37812;47.556;18.718;2022-07-04T13:14:56;99592.78;;;36.36;19.00
51243;BME280;37812;47.556;18.718;2022-07-04T13:17:23;99590.16;;;36.60;19.71
51243;BME280;37812;47.556;18.718;2022-07-04T13:19:50;99588.44;;;36.59;19.58
51243;BME280;37812;47.556;18.718;2022-07-04T13:22:23;99587.63;;;35.95;20.15
51243;BME280;37812;47.556;18.718;2022-07-04T13:24:50;99587.97;;;36.65;18.87
51243;BME280;37812;47.556;18.718;2022-07-04T13:27:17;99584.69;;;36.86;18.96
51243;BME280;37812;47.556;18.718;2022-07-04T13:29:43;99589.44;;;36.45;18.54
51243;BME280;37812;47.556;18.718;2022-07-04T13:32:09;99585.09;;;36.80;18.99
51243;BME280;37812;47.556;18.718;2022-07-04T13:34:35;99586.53;;;36.85;18.33
51243;BME280;37812;47.556;18.718;2022-07-04T13:37:02;99577.16;;;36.29;19.25
51243;BME280;37812;47.556;18.718;2022-07-04T13:39:29;99584.81;;;36.35;19.17
51243;BME280;37812;47.556;18.718;2022-07-04T13:41:55;99579.84;;;36.41;19.93
51243;BME280;37812;47.556;18.718;2022-07-04T13:44:21;99577.91;;;36.43;19.63
51243;BME280;37812;47.556;18.718;2022-07-04T13:46:47;99583.84;;;36.10;19.99
51243;BME280;37812;47.556;18.718;2022-07-04T13:49:13;99578.16;;;36.02;19.65
51243;BME280;37812;47.556;18.718;2022-07-04T13:51:40;99573.66;;;35.90;20.25
51243;BME280;37812;47.556;18.718;2022-07-04T13:54:07;99574.25;;;36.44;19.37
51243;BME280;37812;47.556;18.718;2022-07-04T13:56:34;99574.41;;;36.54;19.59
51243;BME280;37812;47.556;18.718;2022-07-04T13:59:01;99558.50;;;36.26;19.38
51243;BME280;37812;47.556;18.718;2022-07-04T14:01:27;99580.06;;;36.26;19.59
51243;BME280;37812;47.556;18.718;2022-07-04T14:03:53;99571.09;;;36.25;19.29
51243;BME280;37812;47.556;18.718;2022-07-04T14:06:19;99569.94;;;36.16;19.45
51243;BME280;37812;47.556;18.718;2022-07-04T14:08:45;99568.03;;;36.06;19.70
51243;BME280;37812;47.556;18.718;2022-07-04T14:11:11;99565.84;;;36.24;19.41
51243;BME280;37812;47.556;18.718;2022-07-04T14:13:38;99566.06;;;36.20;19.13
51243;BME280;37812;47.556;18.718;2022-07-04T14:16:05;99560.69;;;35.95;20.08
51243;BME280;37812;47.556;18.718;2022-07-04T14:18:32;99556.97;;;36.34;19.35
51243;BME280;37812;47.556;18.718;2022-07-04T14:20:58;99559.13;;;36.42;20.47
51243;BME280;37812;47.556;18.718;2022-07-04T14:23:24;99560.34;;;36.38;19.80
51243;BME280;37812;47.556;18.718;2022-07-04T14:26:06;99565.84;;;36.24;20.67
51243;BME280;37812;47.556;18.718;2022-07-04T14:28:33;99560.22;;;36.27;19.73
51243;BME280;37812;47.556;18.718;2022-07-04T14:30:59;99559.59;;;35.85;19.61
51243;BME280;37812;47.556;18.718;2022-07-04T14:33:26;99556.34;;;35.80;19.63
51243;BME280;37812;47.556;18.718;2022-07-04T14:35:51;99556.34;;;35.42;20.75
51243;BME280;37812;47.556;18.718;2022-07-04T14:38:19;99553.94;;;35.37;20.25
51243;BME280;37812;47.556;18.718;2022-07-04T14:40:45;99543.94;;;35.39;19.75
51243;BME280;37812;47.556;18.718;2022-07-04T14:43:14;99544.72;;;35.41;20.31
51243;BME280;37812;47.556;18.718;2022-07-04T14:45:40;99542.75;;;35.30;21.10
51243;BME280;37812;47.556;18.718;2022-07-04T14:48:06;99538.97;;;35.33;20.58
51243;BME280;37812;47.556;18.718;2022-07-04T14:50:32;99546.66;;;35.64;21.34
51243;BME280;37812;47.556;18.718;2022-07-04T14:52:57;99549.19;;;35.28;20.21
51243;BME280;37812;47.556;18.718;2022-07-04T14:55:23;99550.13;;;35.14;20.39
51243;BME280;37812;47.556;18.718;2022-07-04T14:57:49;99543.97;;;34.99;20.78
51243;BME280;37812;47.556;18.718;2022-07-04T15:00:15;99540.12;;;35.16;20.42
51243;BME280;37812;47.556;18.718;2022-07-04T15:02:41;99551.06;;;35.00;21.20
51243;BME280;37812;47.556;18.718;2022-07-04T15:05:07;99543.97;;;34.58;24.78
51243;BME280;37812;47.556;18.718;2022-07-04T15:07:33;99537.34;;;34.64;26.57
51243;BME280;37812;47.556;18.718;2022-07-04T15:10:00;99536.69;;;34.60;26.39
51243;BME280;37812;47.556;18.718;2022-07-04T15:12:26;99540.41;;;34.58;26.40
51243;BME280;37812;47.556;18.718;2022-07-04T15:14:52;99551.75;;;34.34;27.58
51243;BME280;37812;47.556;18.718;2022-07-04T15:17:17;99539.91;;;33.95;28.99
51243;BME280;37812;47.556;18.718;2022-07-04T15:19:43;99541.53;;;33.84;28.58
51243;BME280;37812;47.556;18.718;2022-07-04T15:22:28;99551.37;;;33.69;28.43
51243;BME280;37812;47.556;18.718;2022-07-04T15:25:12;99537.53;;;33.91;27.59
51243;BME280;37812;47.556;18.718;2022-07-04T15:27:38;99541.84;;;34.08;27.62
51243;BME280;37812;47.556;18.718;2022-07-04T15:30:04;99535.84;;;34.31;27.34
51243;BME280;37812;47.556;18.718;2022-07-04T15:32:31;99532.81;;;34.09;27.63
51243;BME280;37812;47.556;18.718;2022-07-04T15:34:56;99531.75;;;33.97;27.67
51243;BME280;37812;47.556;18.718;2022-07-04T15:37:22;99531.09;;;33.93;27.69
51243;BME280;37812;47.556;18.718;2022-07-04T15:39:48;99528.78;;;34.01;27.95
51243;BME280;37812;47.556;18.718;2022-07-04T15:42:16;99525.81;;;34.06;28.48
51243;BME280;37812;47.556;18.718;2022-07-04T15:44:42;99532.22;;;33.75;27.54
51243;BME280;37812;47.556;18.718;2022-07-04T15:47:09;99533.53;;;33.54;28.26
51243;BME280;37812;47.556;18.718;2022-07-04T15:49:36;99535.25;;;33.55;28.12
51243;BME280;37812;47.556;18.718;2022-07-04T15:52:03;99540.06;;;33.64;27.47
51243;BME280;37812;47.556;18.718;2022-07-04T15:54:31;99540.59;;;33.40;28.06
51243;BME280;37812;47.556;18.718;2022-07-04T15:56:57;99545.25;;;33.37;28.86
51243;BME280;37812;47.556;18.718;2022-07-04T15:59:23;99541.38;;;33.27;29.49
51243;BME280;37812;47.556;18.718;2022-07-04T16:01:49;99537.84;;;32.80;30.62
51243;BME280;37812;47.556;18.718;2022-07-04T16:04:16;99537.00;;;32.64;30.54
51243;BME280;37812;47.556;18.718;2022-07-04T16:06:42;99542.34;;;32.32;31.51
51243;BME280;37812;47.556;18.718;2022-07-04T16:09:08;99549.09;;;32.40;31.05
51243;BME280;37812;47.556;18.718;2022-07-04T16:11:34;99558.47;;;32.15;31.20
51243;BME280;37812;47.556;18.718;2022-07-04T16:14:00;99550.38;;;31.84;31.31
51243;BME280;37812;47.556;18.718;2022-07-04T16:16:27;99539.16;;;31.93;31.62
51243;BME280;37812;47.556;18.718;2022-07-04T16:18:53;99547.53;;;31.69;32.11
51243;BME280;37812;47.556;18.718;2022-07-04T16:21:19;99546.75;;;31.50;32.35
51243;BME280;37812;47.556;18.718;2022-07-04T16:23:45;99545.09;;;31.65;32.05
51243;BME280;37812;47.556;18.718;2022-07-04T16:26:11;99544.47;;;31.42;32.59
51243;BME280;37812;47.556;18.718;2022-07-04T16:28:37;99544.25;;;31.47;32.98
51243;BME280;37812;47.556;18.718;2022-07-04T16:31:03;99542.47;;;31.98;31.79
51243;BME280;37812;47.556;18.718;2022-07-04T16:33:29;99548.81;;;31.79;32.18
51243;BME280;37812;47.556;18.718;2022-07-04T16:35:54;99546.16;;;31.45;33.05
51243;BME280;37812;47.556;18.718;2022-07-04T16:38:20;99538.88;;;31.64;33.01
51243;BME280;37812;47.556;18.718;2022-07-04T16:40:46;99544.41;;;31.26;33.73
51243;BME280;37812;47.556;18.718;2022-07-04T16:43:12;99543.31;;;31.13;34.08
51243;BME280;37812;47.556;18.718;2022-07-04T16:45:39;99535.13;;;30.99;34.47
51243;BME280;37812;47.556;18.718;2022-07-04T16:48:05;99540.41;;;30.82;34.66
51243;BME280;37812;47.556;18.718;2022-07-04T16:50:33;99540.66;;;30.77;35.03
51243;BME280;37812;47.556;18.718;2022-07-04T16:52:59;99533.50;;;30.78;35.31
51243;BME280;37812;47.556;18.718;2022-07-04T16:55:25;99525.31;;;30.81;35.31
51243;BME280;37812;47.556;18.718;2022-07-04T16:57:51;99525.88;;;30.70;35.74
51243;BME280;37812;47.556;18.718;2022-07-04T17:00:16;99526.53;;;30.37;36.37
51243;BME280;37812;47.556;18.718;2022-07-04T17:02:42;99533.63;;;30.75;35.18
51243;BME280;37812;47.556;18.718;2022-07-04T17:05:08;99535.53;;;30.90;35.23
51243;BME280;37812;47.556;18.718;2022-07-04T17:07:34;99527.28;;;30.58;36.11
51243;BME280;37812;47.556;18.718;2022-07-04T17:10:01;99532.41;;;30.44;36.24
51243;BME280;37812;47.556;18.718;2022-07-04T17:12:27;99529.41;;;30.70;36.13
51243;BME280;37812;47.556;18.718;2022-07-04T17:14:56;99528.47;;;30.71;36.07
51243;BME280;37812;47.556;18.718;2022-07-04T17:17:22;99533.16;;;30.66;36.67
51243;BME280;37812;47.556;18.718;2022-07-04T17:19:48;99527.94;;;30.63;36.28
51243;BME280;37812;47.556;18.718;2022-07-04T17:22:14;99520.00;;;30.43;36.73
51243;BME280;37812;47.556;18.718;2022-07-04T17:24:40;99520.09;;;30.60;36.42
51243;BME280;37812;47.556;18.718;2022-07-04T17:27:06;99520.22;;;30.57;36.45
51243;BME280;37812;47.556;18.718;2022-07-04T17:29:31;99521.44;;;30.50;36.55
51243;BME280;37812;47.556;18.718;2022-07-04T17:31:58;99512.50;;;30.51;36.42
51243;BME280;37812;47.556;18.718;2022-07-04T17:34:23;99503.81;;;31.01;35.93
51243;BME280;37812;47.556;18.718;2022-07-04T17:36:49;99501.22;;;30.63;36.22
51243;BME280;37812;47.556;18.718;2022-07-04T17:39:16;99502.28;;;30.42;36.55
51243;BME280;37812;47.556;18.718;2022-07-04T17:41:42;99500.84;;;30.35;36.81
51243;BME280;37812;47.556;18.718;2022-07-04T17:44:13;99506.34;;;30.32;37.62
51243;BME280;37812;47.556;18.718;2022-07-04T17:46:40;99501.69;;;30.54;36.99
51243;BME280;37812;47.556;18.718;2022-07-04T17:49:07;99502.88;;;30.30;37.19
51243;BME280;37812;47.556;18.718;2022-07-04T17:51:34;99498.37;;;30.49;37.09
51243;BME280;37812;47.556;18.718;2022-07-04T17:54:01;99501.81;;;30.51;36.34
51243;BME280;37812;47.556;18.718;2022-07-04T17:56:27;99498.78;;;30.23;37.61
51243;BME280;37812;47.556;18.718;2022-07-04T17:58:52;99502.94;;;30.47;36.84
51243;BME280;37812;47.556;18.718;2022-07-04T18:01:19;99507.13;;;30.34;36.96
51243;BME280;37812;47.556;18.718;2022-07-04T18:03:45;99510.63;;;30.53;36.83
51243;BME280;37812;47.556;18.718;2022-07-04T18:06:11;99504.31;;;30.18;38.06
51243;BME280;37812;47.556;18.718;2022-07-04T18:08:37;99510.88;;;30.85;36.15
51243;BME280;37812;47.556;18.718;2022-07-04T18:11:05;99501.94;;;31.03;36.30
51243;BME280;37812;47.556;18.718;2022-07-04T18:13:32;99508.59;;;30.77;36.64
51243;BME280;37812;47.556;18.718;2022-07-04T18:15:58;99505.28;;;30.72;36.87
51243;BME280;37812;47.556;18.718;2022-07-04T18:18:24;99511.13;;;30.42;37.29
51243;BME280;37812;47.556;18.718;2022-07-04T18:20:50;99514.28;;;30.14;37.51
51243;BME280;37812;47.556;18.718;2022-07-04T18:23:16;99520.50;;;29.76;38.64
51243;BME280;37812;47.556;18.718;2022-07-04T18:25:42;99520.81;;;29.48;40.16
51243;BME280;37812;47.556;18.718;2022-07-04T18:28:08;99520.75;;;29.49;40.82
51243;BME280;37812;47.556;18.718;2022-07-04T18:30:34;99526.47;;;29.20;41.46
51243;BME280;37812;47.556;18.718;2022-07-04T18:33:00;99527.56;;;29.16;40.95
51243;BME280;37812;47.556;18.718;2022-07-04T18:35:28;99534.22;;;28.82;42.31
51243;BME280;37812;47.556;18.718;2022-07-04T18:37:54;99529.66;;;28.64;42.54
51243;BME280;37812;47.556;18.718;2022-07-04T18:40:20;99535.09;;;28.83;42.72
51243;BME280;37812;47.556;18.718;2022-07-04T18:43:05;99531.69;;;29.84;39.07
51243;BME280;37812;47.556;18.718;2022-07-04T18:45:57;99538.16;;;29.78;39.07
51243;BME280;37812;47.556;18.718;2022-07-04T18:48:24;99550.09;;;29.70;39.34
51243;BME280;37812;47.556;18.718;2022-07-04T18:50:51;99554.19;;;29.16;41.39
51243;BME280;37812;47.556;18.718;2022-07-04T18:53:17;99554.50;;;28.86;40.80
51243;BME280;37812;47.556;18.718;2022-07-04T18:55:44;99548.03;;;28.93;41.44
51243;BME280;37812;47.556;18.718;2022-07-04T18:58:10;99550.09;;;28.85;41.98
51243;BME280;37812;47.556;18.718;2022-07-04T19:00:37;99555.22;;;28.91;41.74
51243;BME280;37812;47.556;18.718;2022-07-04T19:03:04;99555.00;;;28.74;41.69
51243;BME280;37812;47.556;18.718;2022-07-04T19:05:30;99551.94;;;28.39;42.08
51243;BME280;37812;47.556;18.718;2022-07-04T19:07:58;99555.62;;;27.88;42.98
51243;BME280;37812;47.556;18.718;2022-07-04T19:10:25;99568.47;;;27.77;43.34
51243;BME280;37812;47.556;18.718;2022-07-04T19:12:51;99570.19;;;27.78;43.31
51243;BME280;37812;47.556;18.718;2022-07-04T19:15:16;99581.44;;;27.60;44.22
51243;BME280;37812;47.556;18.718;2022-07-04T19:17:42;99591.25;;;27.84;44.02
51243;BME280;37812;47.556;18.718;2022-07-04T19:20:11;99578.75;;;27.86;43.00
51243;BME280;37812;47.556;18.718;2022-07-04T19:22:37;99586.59;;;28.14;42.57
51243;BME280;37812;47.556;18.718;2022-07-04T19:25:04;99588.75;;;28.03;42.90
51243;BME280;37812;47.556;18.718;2022-07-04T19:27:31;99590.78;;;27.96;43.27
51243;BME280;37812;47.556;18.718;2022-07-04T19:29:59;99595.44;;;28.15;42.63
51243;BME280;37812;47.556;18.718;2022-07-04T19:32:29;99593.06;;;27.82;43.27
51243;BME280;37812;47.556;18.718;2022-07-04T19:34:55;99582.44;;;27.82;43.35
51243;BME280;37812;47.556;18.718;2022-07-04T19:37:21;99575.59;;;27.75;43.43
51243;BME280;37812;47.556;18.718;2022-07-04T19:39:48;99587.66;;;27.85;43.10
51243;BME280;37812;47.556;18.718;2022-07-04T19:42:14;99586.22;;;27.75;43.41
51243;BME280;37812;47.556;18.718;2022-07-04T19:44:48;99584.91;;;27.62;43.88
51243;BME280;37812;47.556;18.718;2022-07-04T19:47:15;99594.03;;;28.05;43.19
51243;BME280;37812;47.556;18.718;2022-07-04T19:49:45;99596.19;;;28.87;41.23
51243;BME280;37812;47.556;18.718;2022-07-04T19:52:11;99599.38;;;28.51;41.60
51243;BME280;37812;47.556;18.718;2022-07-04T19:57:29;99592.50;;;27.97;42.49
51243;BME280;37812;47.556;18.718;2022-07-04T19:59:56;99592.81;;;28.38;42.03
51243;BME280;37812;47.556;18.718;2022-07-04T20:02:23;99590.69;;;28.00;43.18
51243;BME280;37812;47.556;18.718;2022-07-04T20:04:50;99585.69;;;27.90;43.36
51243;BME280;37812;47.556;18.718;2022-07-04T20:07:17;99589.72;;;27.51;44.28
51243;BME280;37812;47.556;18.718;2022-07-04T20:09:44;99590.22;;;28.12;43.22
51243;BME280;37812;47.556;18.718;2022-07-04T20:12:10;99592.31;;;27.54;44.72
51243;BME280;37812;47.556;18.718;2022-07-04T20:14:36;99595.16;;;27.21;45.92
51243;BME280;37812;47.556;18.718;2022-07-04T20:17:03;99581.97;;;26.92;46.70
51243;BME280;37812;47.556;18.718;2022-07-04T20:19:30;99585.56;;;27.17;45.90
51243;BME280;37812;47.556;18.718;2022-07-04T20:21:57;99575.41;;;28.05;42.56
51243;BME280;37812;47.556;18.718;2022-07-04T20:24:23;99579.03;;;27.79;43.21
51243;BME280;37812;47.556;18.718;2022-07-04T20:26:48;99579.09;;;27.77;43.14
51243;BME280;37812;47.556;18.718;2022-07-04T20:29:15;99574.94;;;27.93;42.96
51243;BME280;37812;47.556;18.718;2022-07-04T20:31:41;99578.03;;;27.81;43.25
51243;BME280;37812;47.556;18.718;2022-07-04T20:34:07;99574.81;;;26.94;45.77
51243;BME280;37812;47.556;18.718;2022-07-04T20:36:33;99577.91;;;26.52;47.25
51243;BME280;37812;47.556;18.718;2022-07-04T20:39:00;99572.94;;;26.69;45.45
51243;BME280;37812;47.556;18.718;2022-07-04T20:41:26;99577.56;;;27.70;43.43
51243;BME280;37812;47.556;18.718;2022-07-04T20:43:52;99588.34;;;28.14;42.68
51243;BME280;37812;47.556;18.718;2022-07-04T20:46:18;99581.87;;;27.97;43.11
51243;BME280;37812;47.556;18.718;2022-07-04T20:48:44;99578.88;;;27.32;45.37
51243;BME280;37812;47.556;18.718;2022-07-04T20:51:11;99576.34;;;27.54;44.30
51243;BME280;37812;47.556;18.718;2022-07-04T20:53:37;99579.59;;;27.62;43.93
51243;BME280;37812;47.556;18.718;2022-07-04T20:56:04;99575.16;;;27.11;45.45
51243;BME280;37812;47.556;18.718;2022-07-04T20:58:30;99573.34;;;26.83;46.93
51243;BME280;37812;47.556;18.718;2022-07-04T21:00:57;99570.38;;;26.66;47.13
51243;BME280;37812;47.556;18.718;2022-07-04T21:03:23;99573.66;;;26.74;47.26
51243;BME280;37812;47.556;18.718;2022-07-04T21:05:49;99575.34;;;26.49;47.69
51243;BME280;37812;47.556;18.718;2022-07-04T21:08:14;99572.88;;;26.43;47.53
51243;BME280;37812;47.556;18.718;2022-07-04T21:10:40;99573.03;;;26.37;47.70
51243;BME280;37812;47.556;18.718;2022-07-04T21:13:06;99573.78;;;26.42;46.57
51243;BME280;37812;47.556;18.718;2022-07-04T21:15:32;99577.41;;;26.39;46.70
51243;BME280;37812;47.556;18.718;2022-07-04T21:17:58;99577.91;;;26.52;46.08
51243;BME280;37812;47.556;18.718;2022-07-04T21:20:24;99575.31;;;26.78;45.33
51243;BME280;37812;47.556;18.718;2022-07-04T21:22:51;99573.41;;;27.10;44.04
51243;BME280;37812;47.556;18.718;2022-07-04T21:25:18;99563.22;;;26.96;44.64
51243;BME280;37812;47.556;18.718;2022-07-04T21:27:44;99564.44;;;26.86;44.90
51243;BME280;37812;47.556;18.718;2022-07-04T21:30:11;99566.59;;;27.01;44.27
51243;BME280;37812;47.556;18.718;2022-07-04T21:32:37;99566.44;;;27.07;44.45
51243;BME280;37812;47.556;18.718;2022-07-04T21:35:04;99566.97;;;27.17;44.51
51243;BME280;37812;47.556;18.718;2022-07-04T21:37:30;99568.91;;;27.12;44.28
51243;BME280;37812;47.556;18.718;2022-07-04T21:39:56;99582.59;;;27.00;44.94
51243;BME280;37812;47.556;18.718;2022-07-04T21:42:22;99592.13;;;27.07;44.43
51243;BME280;37812;47.556;18.718;2022-07-04T21:44:47;99602.63;;;27.10;44.51
51243;BME280;37812;47.556;18.718;2022-07-04T21:47:13;99605.94;;;26.88;44.95
51243;BME280;37812;47.556;18.718;2022-07-04T21:49:39;99608.53;;;26.92;44.94
51243;BME280;37812;47.556;18.718;2022-07-04T21:52:07;99605.41;;;27.07;44.44
51243;BME280;37812;47.556;18.718;2022-07-04T21:54:33;99606.03;;;27.15;44.11
51243;BME280;37812;47.556;18.718;2022-07-04T21:56:59;99607.72;;;26.88;44.82
51243;BME280;37812;47.556;18.718;2022-07-04T21:59:25;99622.78;;;26.87;44.96
51243;BME280;37812;47.556;18.718;2022-07-04T22:01:50;99618.69;;;27.07;44.25
51243;BME280;37812;47.556;18.718;2022-07-04T22:04:16;99625.09;;;26.98;44.56
51243;BME280;37812;47.556;18.718;2022-07-04T22:06:42;99630.31;;;27.01;44.77
51243;BME280;37812;47.556;18.718;2022-07-04T22:09:08;99631.28;;;26.99;44.72
51243;BME280;37812;47.556;18.718;2022-07-04T22:11:34;99635.63;;;26.73;45.47
51243;BME280;37812;47.556;18.718;2022-07-04T22:14:00;99635.56;;;26.76;45.50
51243;BME280;37812;47.556;18.718;2022-07-04T22:16:26;99640.63;;;26.54;46.16
51243;BME280;37812;47.556;18.718;2022-07-04T22:18:52;99645.31;;;26.45;47.00
51243;BME280;37812;47.556;18.718;2022-07-04T22:21:18;99648.22;;;26.36;47.45
51243;BME280;37812;47.556;18.718;2022-07-04T22:23:44;99644.84;;;26.30;47.77
51243;BME280;37812;47.556;18.718;2022-07-04T22:26:10;99652.81;;;26.30;48.15
51243;BME280;37812;47.556;18.718;2022-07-04T22:28:36;99649.69;;;26.47;47.97
51243;BME280;37812;47.556;18.718;2022-07-04T22:31:02;99651.66;;;26.41;48.26
51243;BME280;37812;47.556;18.718;2022-07-04T22:33:28;99650.97;;;26.32;49.07
51243;BME280;37812;47.556;18.718;2022-07-04T22:35:54;99659.53;;;26.11;49.92
51243;BME280;37812;47.556;18.718;2022-07-04T22:38:20;99657.37;;;26.25;50.07
51243;BME280;37812;47.556;18.718;2022-07-04T22:40:46;99649.00;;;26.41;50.47
51243;BME280;37812;47.556;18.718;2022-07-04T22:43:12;99647.94;;;26.15;51.41
51243;BME280;37812;47.556;18.718;2022-07-04T22:45:38;99661.22;;;26.15;52.02
51243;BME280;37812;47.556;18.718;2022-07-04T22:48:05;99662.44;;;26.02;53.04
51243;BME280;37812;47.556;18.718;2022-07-04T22:50:31;99670.09;;;26.13;53.26
51243;BME280;37812;47.556;18.718;2022-07-04T22:52:56;99678.72;;;26.21;53.24
51243;BME280;37812;47.556;18.718;2022-07-04T22:55:22;99683.31;;;26.14;53.69
51243;BME280;37812;47.556;18.718;2022-07-04T22:57:48;99684.84;;;25.90;54.65
51243;BME280;37812;47.556;18.718;2022-07-04T23:00:15;99690.81;;;26.00;54.62
51243;BME280;37812;47.556;18.718;2022-07-04T23:02:42;99686.38;;;26.00;55.22
51243;BME280;37812;47.556;18.718;2022-07-04T23:05:10;99694.13;;;25.74;56.40
51243;BME280;37812;47.556;18.718;2022-07-04T23:07:36;99687.63;;;25.86;56.31
51243;BME280;37812;47.556;18.718;2022-07-04T23:10:04;99694.75;;;25.84;56.82
51243;BME280;37812;47.556;18.718;2022-07-04T23:12:30;99686.22;;;25.72;57.13
51243;BME280;37812;47.556;18.718;2022-07-04T23:14:56;99686.13;;;25.75;57.38
51243;BME280;37812;47.556;18.718;2022-07-04T23:17:22;99681.34;;;25.54;58.01
51243;BME280;37812;47.556;18.718;2022-07-04T23:19:48;99690.81;;;25.64;57.91
51243;BME280;37812;47.556;18.718;2022-07-04T23:22:14;99680.91;;;25.72;57.58
51243;BME280;37812;47.556;18.718;2022-07-04T23:24:40;99677.78;;;25.55;58.12
51243;BME280;37812;47.556;18.718;2022-07-04T23:27:06;99661.50;;;25.70;57.74
51243;BME280;37812;47.556;18.718;2022-07-04T23:29:32;99663.78;;;25.50;58.71
51243;BME280;37812;47.556;18.718;2022-07-04T23:31:58;99670.75;;;25.54;58.13
51243;BME280;37812;47.556;18.718;2022-07-04T23:34:24;99666.63;;;25.42;58.39
51243;BME280;37812;47.556;18.718;2022-07-04T23:36:50;99653.72;;;25.29;58.78
51243;BME280;37812;47.556;18.718;2022-07-04T23:39:17;99652.22;;;25.54;57.81
51243;BME280;37812;47.556;18.718;2022-07-04T23:41:43;99645.84;;;25.61;57.22
51243;BME280;37812;47.556;18.718;2022-07-04T23:44:09;99652.22;;;25.52;57.34
51243;BME280;37812;47.556;18.718;2022-07-04T23:46:35;99642.69;;;25.47;56.85
51243;BME280;37812;47.556;18.718;2022-07-04T23:49:01;99632.38;;;25.35;57.34
51243;BME280;37812;47.556;18.718;2022-07-04T23:51:27;99634.13;;;25.36;56.82
51243;BME280;37812;47.556;18.718;2022-07-04T23:53:53;99643.13;;;25.29;56.67
51243;BME280;37812;47.556;18.718;2022-07-04T23:56:19;99640.44;;;24.93;58.05
51243;BME280;37812;47.556;18.718;2022-07-04T23:58:45;99634.87;;;25.05;57.44
